Time;durP1;ratioP1;P1;durP2;ratioP2;P2;SDS_P1;SDS_P2;PMS_P1;PMS_P2;Temp;Humidity;BMP_temperature;BMP_pressure;BME280_temperature;BME280_humidity;BME280_pressure;Samples;Min_cycle;Max_cycle;Signal;HPM_P1;HPM_P2
2023/11/08 05:01:05;;;;;;;5.10;3.92;;;9.10;99.90;;;;;;5733798;22;20236;-74
2023/11/08 05:03:31;;;;;;;7.13;4.05;;;9.20;99.90;;;;;;5024366;28;20221;-76
2023/11/08 05:05:58;;;;;;;4.00;3.65;;;9.10;99.90;;;;;;5024761;28;20562;-75
2023/11/08 05:08:25;;;;;;;3.90;3.60;;;9.20;99.90;;;;;;5029353;28;20304;-75
2023/11/08 05:10:52;;;;;;;4.00;3.72;;;9.20;99.90;;;;;;5029917;28;20232;-75
2023/11/08 05:13:19;;;;;;;3.92;3.60;;;9.20;99.90;;;;;;5023756;28;20223;-75
2023/11/08 05:15:46;;;;;;;4.95;4.55;;;9.20;99.90;;;;;;5016792;28;20231;-73
2023/11/08 05:18:14;;;;;;;8.93;3.92;;;9.20;99.90;;;;;;5022955;28;20215;-74
2023/11/08 05:20:43;;;;;;;4.35;3.33;;;9.20;99.90;;;;;;5024072;28;20237;-74
2023/11/08 05:23:09;;;;;;;4.60;3.83;;;9.20;99.90;;;;;;5025282;28;20502;-76
2023/11/08 05:25:39;;;;;;;5.30;4.70;;;9.20;99.90;;;;;;5028581;28;20210;-75
2023/11/08 05:28:06;;;;;;;5.97;5.47;;;9.30;99.90;;;;;;5027789;28;20225;-74
2023/11/08 05:30:34;;;;;;;5.38;4.50;;;9.30;99.90;;;;;;5024402;28;20233;-75
2023/11/08 05:33:02;;;;;;;4.30;4.00;;;9.30;99.90;;;;;;5026608;28;20288;-74
2023/11/08 05:35:30;;;;;;;4.03;3.72;;;9.30;99.90;;;;;;5029101;28;20224;-76
2023/11/08 05:37:57;;;;;;;4.90;3.67;;;9.30;99.90;;;;;;5029673;28;20211;-76
2023/11/08 05:40:24;;;;;;;3.95;3.65;;;9.30;99.90;;;;;;5027895;28;20275;-74
2023/11/08 05:42:53;;;;;;;4.15;3.95;;;9.30;99.90;;;;;;5023433;28;20240;-75
2023/11/08 05:45:20;;;;;;;4.32;4.00;;;9.30;99.90;;;;;;5025351;28;20726;-75
2023/11/08 05:47:47;;;;;;;4.70;4.30;;;9.30;99.90;;;;;;5025261;28;20235;-74
2023/11/08 05:50:14;;;;;;;4.10;3.80;;;9.30;99.90;;;;;;5026624;28;20690;-74
2023/11/08 05:52:42;;;;;;;4.32;3.97;;;9.20;99.90;;;;;;5023444;28;20220;-74
2023/11/08 05:55:10;;;;;;;5.50;4.78;;;9.20;99.90;;;;;;5028859;28;20564;-74
2023/11/08 05:57:37;;;;;;;5.25;4.85;;;9.20;99.90;;;;;;5027687;28;20304;-74
2023/11/08 06:00:08;;;;;;;10.82;7.65;;;9.20;99.90;;;;;;5023509;28;20347;-74
2023/11/08 06:02:35;;;;;;;7.65;6.05;;;9.30;99.90;;;;;;5018551;28;20332;-75
2023/11/08 06:05:04;;;;;;;6.03;5.35;;;9.30;99.90;;;;;;5024842;28;20210;-74
2023/11/08 06:07:30;;;;;;;5.60;5.18;;;9.30;99.90;;;;;;5023579;28;20229;-74
2023/11/08 06:10:00;;;;;;;4.88;4.22;;;9.20;99.90;;;;;;5023775;28;20220;-74
2023/11/08 06:12:27;;;;;;;5.03;4.53;;;9.30;99.90;;;;;;5025938;28;20698;-74
2023/11/08 06:14:54;;;;;;;4.90;4.50;;;9.30;99.90;;;;;;5023987;28;20697;-75
2023/11/08 06:17:21;;;;;;;11.27;4.70;;;9.20;99.90;;;;;;5025620;28;20312;-75
2023/11/08 06:19:48;;;;;;;4.32;4.03;;;9.20;99.90;;;;;;5025213;28;20214;-76
2023/11/08 06:22:15;;;;;;;5.60;4.30;;;9.10;99.90;;;;;;5026920;28;20254;-75
2023/11/08 06:24:42;;;;;;;3.63;3.42;;;9.10;99.90;;;;;;5022648;28;20590;-76
2023/11/08 06:27:10;;;;;;;4.30;4.10;;;9.10;99.90;;;;;;5023972;28;20216;-75
2023/11/08 06:29:39;;;;;;;4.32;3.97;;;9.10;99.90;;;;;;5031404;28;20228;-75
2023/11/08 06:32:06;;;;;;;5.60;4.00;;;9.10;99.90;;;;;;5031678;28;20236;-74
2023/11/08 06:34:33;;;;;;;5.75;4.72;;;9.10;99.90;;;;;;5030618;28;20216;-75
2023/11/08 06:37:00;;;;;;;4.85;4.55;;;9.20;99.90;;;;;;5032094;28;20212;-75
2023/11/08 06:39:28;;;;;;;7.10;4.82;;;9.20;99.90;;;;;;5031861;28;20208;-75
2023/11/08 06:41:55;;;;;;;5.90;5.32;;;9.20;99.90;;;;;;5029645;28;20247;-74
2023/11/08 06:44:24;;;;;;;4.72;4.22;;;9.20;99.90;;;;;;5031890;28;20207;-75
2023/11/08 06:46:52;;;;;;;4.93;4.50;;;9.20;99.90;;;;;;5029541;28;20209;-75
2023/11/08 06:49:19;;;;;;;6.07;4.65;;;9.10;99.90;;;;;;5025680;28;20254;-74
2023/11/08 06:51:46;;;;;;;7.50;5.10;;;9.10;99.90;;;;;;5025964;28;20232;-74
2023/11/08 06:54:13;;;;;;;11.05;8.88;;;9.10;99.90;;;;;;5031327;28;20213;-74
2023/11/08 06:56:40;;;;;;;3.50;3.30;;;9.10;99.90;;;;;;5030647;28;20898;-74
2023/11/08 06:59:07;;;;;;;13.65;6.78;;;9.10;99.90;;;;;;5033831;28;20694;-75
2023/11/08 07:01:37;;;;;;;4.88;4.30;;;9.00;99.90;;;;;;5032567;28;20239;-75
2023/11/08 07:04:04;;;;;;;5.63;5.32;;;9.10;99.90;;;;;;5036135;28;20230;-75
2023/11/08 07:06:31;;;;;;;5.75;4.70;;;9.10;99.90;;;;;;5035066;28;20676;-76
2023/11/08 07:08:58;;;;;;;3.95;3.67;;;9.10;99.90;;;;;;5029600;28;20229;-73
2023/11/08 07:11:27;;;;;;;6.50;4.75;;;9.10;99.90;;;;;;5031203;28;20282;-73
2023/11/08 07:13:54;;;;;;;4.80;4.10;;;9.00;99.90;;;;;;5025339;28;20687;-72
2023/11/08 07:16:20;;;;;;;5.55;5.00;;;9.10;99.90;;;;;;5027992;28;20217;-73
2023/11/08 07:18:48;;;;;;;4.30;4.00;;;9.10;99.90;;;;;;5029499;28;20202;-74
2023/11/08 07:21:18;;;;;;;7.15;5.15;;;9.10;99.90;;;;;;5028341;28;20237;-74
2023/11/08 07:23:45;;;;;;;5.53;5.10;;;9.10;99.90;;;;;;5029117;28;20244;-73
2023/11/08 07:26:13;;;;;;;5.22;4.70;;;9.10;99.90;;;;;;5028795;28;20208;-75
2023/11/08 07:28:40;;;;;;;4.15;3.95;;;9.10;99.90;;;;;;5026338;28;20231;-74
2023/11/08 07:31:08;;;;;;;5.15;4.75;;;9.10;99.90;;;;;;5026153;28;20228;-73
2023/11/08 07:33:35;;;;;;;8.63;5.07;;;9.10;99.90;;;;;;5030477;28;20248;-73
2023/11/08 07:36:04;;;;;;;6.65;5.10;;;9.20;99.90;;;;;;5028121;28;20221;-72
2023/11/08 07:38:31;;;;;;;7.97;5.85;;;9.10;99.90;;;;;;5027569;28;20205;-72
2023/11/08 07:41:00;;;;;;;4.53;4.10;;;9.10;99.90;;;;;;5026464;28;20228;-72
2023/11/08 07:43:27;;;;;;;7.63;5.25;;;9.10;99.90;;;;;;5022674;28;20227;-74
2023/11/08 07:45:53;;;;;;;5.10;4.32;;;9.20;99.90;;;;;;5024658;28;20213;-73
2023/11/08 07:48:20;;;;;;;5.00;4.30;;;9.20;99.90;;;;;;5044159;28;20207;-73
2023/11/08 07:50:47;;;;;;;6.72;5.53;;;9.20;99.90;;;;;;5042056;28;20225;-73
2023/11/08 07:53:15;;;;;;;4.38;4.07;;;9.20;99.90;;;;;;5034629;28;20203;-74
2023/11/08 07:55:42;;;;;;;5.85;4.30;;;9.20;99.90;;;;;;5036204;28;20554;-74
2023/11/08 07:58:08;;;;;;;5.82;5.25;;;9.20;99.90;;;;;;5029532;28;20212;-74
2023/11/08 08:00:35;;;;;;;11.65;6.97;;;9.20;99.90;;;;;;5024434;28;20256;-73
2023/11/08 08:03:02;;;;;;;6.32;5.40;;;9.30;99.90;;;;;;5025850;28;20220;-75
2023/11/08 08:05:28;;;;;;;5.38;4.97;;;9.30;99.90;;;;;;5026596;28;20212;-74
2023/11/08 08:07:55;;;;;;;4.80;4.47;;;9.30;99.90;;;;;;5029146;28;20251;-73
2023/11/08 08:10:25;;;;;;;6.60;5.90;;;9.40;99.90;;;;;;5026711;28;20239;-73
2023/11/08 08:12:53;;;;;;;9.55;4.20;;;9.40;99.90;;;;;;5023813;28;20204;-72
2023/11/08 08:15:19;;;;;;;5.35;4.85;;;9.50;99.90;;;;;;5028829;28;20209;-74
2023/11/08 08:17:46;;;;;;;4.55;4.13;;;9.50;99.90;;;;;;5028712;28;20754;-71
2023/11/08 08:20:13;;;;;;;4.68;4.38;;;9.50;99.90;;;;;;5029575;28;20254;-73
2023/11/08 08:22:40;;;;;;;5.15;4.63;;;9.50;99.90;;;;;;5027580;28;20237;-71
2023/11/08 08:25:09;;;;;;;5.00;4.68;;;9.50;99.90;;;;;;5024466;28;20214;-71
2023/11/08 08:27:38;;;;;;;3.63;3.47;;;9.60;99.90;;;;;;5026002;28;20566;-71
2023/11/08 08:30:06;;;;;;;3.83;3.63;;;9.70;99.90;;;;;;5027217;28;20244;-71
2023/11/08 08:32:32;;;;;;;4.75;3.55;;;9.80;99.90;;;;;;5026922;28;20222;-71
2023/11/08 08:34:59;;;;;;;4.13;3.92;;;9.80;99.90;;;;;;5026375;28;20213;-72
2023/11/08 08:37:26;;;;;;;3.75;3.55;;;9.80;99.90;;;;;;5020514;28;20208;-71
2023/11/08 08:39:53;;;;;;;3.97;3.50;;;9.80;99.90;;;;;;5020904;28;20210;-74
2023/11/08 08:42:20;;;;;;;5.47;4.95;;;9.80;99.90;;;;;;5024546;28;20312;-73
2023/11/08 08:44:49;;;;;;;3.25;3.15;;;9.80;99.90;;;;;;5025059;28;20205;-73
2023/11/08 08:47:16;;;;;;;4.40;4.00;;;9.80;99.90;;;;;;5027287;28;20746;-73
2023/11/08 08:49:42;;;;;;;4.43;3.92;;;9.80;99.90;;;;;;5030203;28;20230;-72
2023/11/08 08:52:09;;;;;;;4.40;4.10;;;9.90;99.90;;;;;;5028877;28;20703;-73
2023/11/08 08:54:36;;;;;;;4.38;4.00;;;9.90;99.90;;;;;;5029606;28;20212;-73
2023/11/08 08:57:03;;;;;;;5.88;4.30;;;9.90;99.90;;;;;;5025757;28;20210;-73
2023/11/08 08:59:29;;;;;;;5.25;4.80;;;9.90;99.90;;;;;;5026238;28;20212;-73
2023/11/08 09:01:57;;;;;;;7.38;4.85;;;10.00;99.90;;;;;;5019395;28;20260;-73
2023/11/08 09:04:24;;;;;;;7.47;4.55;;;10.10;99.90;;;;;;5020086;28;20206;-73
2023/11/08 09:06:51;;;;;;;5.35;4.40;;;10.10;99.90;;;;;;5029466;28;20676;-72
2023/11/08 09:09:18;;;;;;;6.82;4.45;;;10.20;99.90;;;;;;5029093;28;20226;-73
2023/11/08 09:11:45;;;;;;;6.85;5.13;;;10.20;99.90;;;;;;5028619;28;20252;-73
2023/11/08 09:14:11;;;;;;;3.95;3.65;;;10.20;99.90;;;;;;5028358;28;20246;-73
2023/11/08 09:16:38;;;;;;;4.93;4.10;;;10.10;99.90;;;;;;5028588;28;20215;-73
2023/11/08 09:19:09;;;;;;;7.13;4.63;;;10.10;99.90;;;;;;5028314;28;20581;-72
2023/11/08 09:21:36;;;;;;;5.57;4.88;;;10.10;99.90;;;;;;5029115;28;20412;-72
2023/11/08 09:24:06;;;;;;;6.43;3.70;;;10.10;99.90;;;;;;5028320;28;20286;-72
2023/11/08 09:26:32;;;;;;;12.27;5.85;;;10.10;99.90;;;;;;5027724;28;20214;-72
2023/11/08 09:28:59;;;;;;;6.85;5.75;;;10.10;99.90;;;;;;5030233;28;20237;-73
2023/11/08 09:31:27;;;;;;;6.65;4.00;;;10.10;99.90;;;;;;5028445;28;20229;-73
2023/11/08 09:33:53;;;;;;;8.52;7.85;;;10.10;99.90;;;;;;5023930;28;20588;-72
2023/11/08 09:36:22;;;;;;;6.95;6.13;;;10.10;99.90;;;;;;5021439;28;20205;-73
2023/11/08 09:38:50;;;;;;;7.93;5.90;;;10.10;99.90;;;;;;5017305;28;20206;-72
2023/11/08 09:41:17;;;;;;;4.97;4.57;;;10.10;99.90;;;;;;5021266;28;20235;-74
2023/11/08 09:43:45;;;;;;;5.20;4.45;;;10.10;99.90;;;;;;5027304;28;20283;-73
2023/11/08 09:46:13;;;;;;;4.25;4.05;;;10.10;99.90;;;;;;5025064;28;20214;-73
2023/11/08 09:48:42;;;;;;;5.75;5.22;;;10.10;99.90;;;;;;5027584;28;20554;-73
2023/11/08 09:51:09;;;;;;;6.50;4.55;;;10.10;99.90;;;;;;5026860;28;20219;-73
2023/11/08 09:53:38;;;;;;;8.02;5.13;;;10.10;99.90;;;;;;5024055;28;20210;-73
2023/11/08 09:56:06;;;;;;;4.32;4.03;;;10.20;99.90;;;;;;5025673;28;20214;-74
2023/11/08 09:58:33;;;;;;;7.38;5.63;;;10.10;99.90;;;;;;5029297;28;20285;-73
2023/11/08 10:01:02;;;;;;;4.45;4.05;;;10.20;99.90;;;;;;5028936;28;20251;-72
2023/11/08 10:03:31;;;;;;;6.63;5.10;;;10.20;99.90;;;;;;5029827;28;20233;-73
2023/11/08 10:06:00;;;;;;;5.18;4.70;;;10.20;99.90;;;;;;5029186;28;20333;-73
2023/11/08 10:08:27;;;;;;;6.18;4.43;;;10.30;99.90;;;;;;5026912;28;20297;-73
2023/11/08 10:10:59;;;;;;;6.22;5.28;;;10.40;99.90;;;;;;5023458;28;20289;-73
2023/11/08 10:13:41;;;;;;;5.43;4.90;;;10.40;99.90;;;;;;5030042;28;20207;-73
2023/11/08 10:16:09;;;;;;;5.43;4.95;;;10.50;99.90;;;;;;5027554;28;20202;-72
2023/11/08 10:18:36;;;;;;;5.13;4.63;;;10.40;99.90;;;;;;5032096;28;20217;-72
2023/11/08 10:21:07;;;;;;;4.35;4.05;;;10.40;99.90;;;;;;5031203;28;20222;-72
2023/11/08 10:23:34;;;;;;;5.13;4.20;;;10.40;99.90;;;;;;5032958;28;20276;-71
2023/11/08 10:26:15;;;;;;;9.90;6.30;;;10.40;99.90;;;;;;5033252;28;20744;-72
2023/11/08 10:28:55;;;;;;;5.15;4.07;;;10.40;99.90;;;;;;5032617;28;20220;-70
2023/11/08 10:31:29;;;;;;;4.28;3.90;;;10.50;99.90;;;;;;5031811;28;20313;-71
2023/11/08 10:33:57;;;;;;;10.38;5.30;;;10.50;99.90;;;;;;5025111;28;20201;-71
2023/11/08 10:36:25;;;;;;;4.97;3.75;;;10.60;99.90;;;;;;5033174;28;20206;-72
2023/11/08 10:38:51;;;;;;;10.15;6.25;;;10.70;99.90;;;;;;5031937;28;20830;-73
2023/11/08 10:41:20;;;;;;;4.80;4.40;;;10.80;99.90;;;;;;5029183;28;20218;-72
2023/11/08 10:43:47;;;;;;;5.50;3.60;;;10.80;99.90;;;;;;5030020;28;20217;-72
2023/11/08 10:46:14;;;;;;;12.05;6.40;;;10.90;99.90;;;;;;5022949;28;20470;-72
2023/11/08 10:48:42;;;;;;;6.97;5.10;;;11.00;99.90;;;;;;5027412;28;20203;-73
2023/11/08 10:51:12;;;;;;;4.90;4.25;;;11.00;99.90;;;;;;5030623;28;20546;-72
2023/11/08 10:53:39;;;;;;;6.93;4.47;;;11.10;99.90;;;;;;5029253;28;20734;-72
2023/11/08 10:56:08;;;;;;;3.60;3.30;;;11.30;99.90;;;;;;5030672;28;20469;-72
2023/11/08 10:58:38;;;;;;;4.73;4.00;;;11.30;99.90;;;;;;5020370;28;20509;-73
2023/11/08 11:01:06;;;;;;;8.80;4.70;;;11.30;99.90;;;;;;5029442;28;20508;-71
2023/11/08 11:03:35;;;;;;;4.80;3.70;;;11.30;99.90;;;;;;5030282;28;20472;-72
2023/11/08 11:06:05;;;;;;;5.47;3.50;;;11.30;99.90;;;;;;5028766;28;21036;-72
2023/11/08 11:08:40;;;;;;;6.30;3.60;;;11.30;99.90;;;;;;5027998;28;20469;-72
2023/11/08 11:11:08;;;;;;;3.70;3.47;;;11.20;99.90;;;;;;5026751;28;21077;-72
2023/11/08 11:13:43;;;;;;;3.97;3.57;;;11.30;99.90;;;;;;5026268;28;20553;-72
2023/11/08 11:16:17;;;;;;;3.30;2.90;;;11.40;99.90;;;;;;5026795;28;20485;-72
2023/11/08 11:18:46;;;;;;;3.67;3.37;;;11.40;99.90;;;;;;5025184;28;20475;-72
2023/11/08 11:21:18;;;;;;;6.63;4.10;;;11.30;99.90;;;;;;5024504;28;20501;-72
2023/11/08 11:23:44;;;;;;;2.93;2.73;;;11.40;99.90;;;;;;5022300;28;20457;-72
2023/11/08 11:26:11;;;;;;;3.13;2.93;;;11.30;99.90;;;;;;5027750;28;20461;-72
2023/11/08 11:28:52;;;;;;;2.87;2.70;;;11.30;99.90;;;;;;5026262;28;20456;-71
2023/11/08 11:31:35;;;;;;;26.10;15.53;;;11.30;99.90;;;;;;5029498;28;20492;-70
2023/11/08 11:34:42;;;;;;;3.50;2.97;;;11.30;99.90;;;;;;5026929;28;20637;-72
2023/11/08 11:37:12;;;;;;;2.47;2.37;;;11.30;99.90;;;;;;5029443;28;20465;-72
2023/11/08 11:39:42;;;;;;;2.40;2.30;;;11.20;99.90;;;;;;5030982;28;20480;-71
2023/11/08 11:42:14;;;;;;;2.63;2.43;;;11.30;99.90;;;;;;5025144;28;20494;-71
2023/11/08 11:44:42;;;;;;;3.03;2.83;;;11.30;99.90;;;;;;5027987;28;20472;-72
2023/11/08 11:47:10;;;;;;;6.53;4.30;;;11.40;99.90;;;;;;5017792;28;20465;-71
2023/11/08 11:49:38;;;;;;;4.07;3.30;;;11.40;99.90;;;;;;5027366;28;20485;-72
2023/11/08 11:52:07;;;;;;;7.97;2.87;;;11.40;99.90;;;;;;5028434;28;20485;-72
2023/11/08 11:54:34;;;;;;;5.83;4.70;;;11.40;99.90;;;;;;5026856;28;21036;-72
2023/11/08 11:57:00;;;;;;;4.70;4.30;;;11.50;99.90;;;;;;5029081;28;20469;-72
2023/11/08 11:59:27;;;;;;;2.70;2.60;;;11.50;99.90;;;;;;5028526;28;20836;-73
2023/11/08 12:01:54;;;;;;;3.20;2.90;;;11.60;99.90;;;;;;5027681;28;20551;-70
2023/11/08 12:04:22;;;;;;;2.20;2.20;;;11.70;99.90;;;;;;5025758;28;20559;-72
2023/11/08 12:06:50;;;;;;;11.00;4.80;;;11.70;99.90;;;;;;5019931;28;20985;-72
2023/11/08 12:09:19;;;;;;;3.50;3.30;;;11.70;99.90;;;;;;5017931;28;20477;-72
2023/11/08 12:11:49;;;;;;;3.73;2.83;;;11.70;99.90;;;;;;5027359;28;20498;-72
2023/11/08 12:14:21;;;;;;;2.73;2.63;;;11.70;99.90;;;;;;5029964;28;20469;-71
2023/11/08 12:16:48;;;;;;;4.80;4.40;;;11.70;99.90;;;;;;5029971;28;20476;-72
2023/11/08 12:19:15;;;;;;;7.80;6.87;;;11.70;99.90;;;;;;5029880;28;20796;-71
2023/11/08 12:21:42;;;;;;;2.10;2.10;;;11.70;99.90;;;;;;5027565;28;20498;-71
2023/11/08 12:24:09;;;;;;;3.13;2.93;;;11.80;99.90;;;;;;5019103;28;20474;-72
2023/11/08 12:26:37;;;;;;;3.00;2.80;;;11.70;99.90;;;;;;5028856;28;20560;-72
2023/11/08 12:29:05;;;;;;;2.50;2.40;;;11.70;99.90;;;;;;5022966;28;20477;-72
2023/11/08 12:31:34;;;;;;;2.60;2.47;;;11.70;99.90;;;;;;5025856;28;20486;-72
2023/11/08 12:34:04;;;;;;;2.57;2.37;;;11.70;99.90;;;;;;5026448;28;20461;-71
2023/11/08 12:36:31;;;;;;;2.20;2.00;;;11.90;99.90;;;;;;5023234;28;20539;-72
2023/11/08 12:38:58;;;;;;;2.00;1.90;;;11.90;99.90;;;;;;5030624;28;20460;-73
2023/11/08 12:41:27;;;;;;;2.03;2.03;;;11.90;99.90;;;;;;5027471;28;20481;-72
2023/11/08 12:43:59;;;;;;;2.50;2.30;;;11.90;99.90;;;;;;5023927;28;20465;-73
2023/11/08 12:46:26;;;;;;;2.23;2.10;;;11.90;99.90;;;;;;5027290;28;20846;-72
2023/11/08 12:48:57;;;;;;;2.90;2.80;;;11.90;99.90;;;;;;5024429;28;20466;-73
2023/11/08 12:51:30;;;;;;;2.00;1.87;;;11.90;99.90;;;;;;5028356;28;20522;-73
2023/11/08 12:53:57;;;;;;;3.67;2.10;;;11.90;99.90;;;;;;5025688;28;20471;-73
2023/11/08 12:56:24;;;;;;;2.50;2.40;;;12.00;99.90;;;;;;5017658;28;20469;-74
2023/11/08 12:58:50;;;;;;;2.60;2.30;;;12.10;99.90;;;;;;5028190;28;20469;-72
2023/11/08 13:01:21;;;;;;;3.70;1.83;;;12.10;99.90;;;;;;5023247;28;21000;-73
2023/11/08 13:03:48;;;;;;;2.70;2.60;;;12.10;99.90;;;;;;5028291;28;20490;-73
2023/11/08 13:06:15;;;;;;;2.10;1.90;;;12.20;99.90;;;;;;5020698;28;20472;-72
2023/11/08 13:08:42;;;;;;;5.00;2.43;;;12.10;99.90;;;;;;5024942;28;20473;-72
2023/11/08 13:11:09;;;;;;;12.37;6.87;;;12.00;99.90;;;;;;5026551;28;20494;-72
2023/11/08 13:13:36;;;;;;;2.97;2.77;;;12.00;99.90;;;;;;5029325;28;20462;-73
2023/11/08 13:16:05;;;;;;;2.33;2.23;;;11.90;99.90;;;;;;5024645;28;20564;-73
2023/11/08 13:18:33;;;;;;;2.73;2.37;;;12.00;99.90;;;;;;5025168;28;21038;-73
2023/11/08 13:21:00;;;;;;;4.00;2.07;;;12.00;99.90;;;;;;5028314;28;20484;-73
2023/11/08 13:23:27;;;;;;;2.40;2.20;;;11.90;99.90;;;;;;5028439;28;20845;-72
2023/11/08 13:25:54;;;;;;;3.90;2.37;;;11.90;99.90;;;;;;5027615;28;20888;-72
2023/11/08 13:28:21;;;;;;;2.60;2.07;;;11.90;99.90;;;;;;5024950;28;20457;-72
2023/11/08 13:30:48;;;;;;;1.83;1.80;;;11.80;99.90;;;;;;5027874;28;20573;-73
2023/11/08 13:33:15;;;;;;;8.07;1.83;;;11.80;99.90;;;;;;5028433;28;20541;-73
2023/11/08 13:35:43;;;;;;;4.53;2.87;;;11.80;99.90;;;;;;5028589;28;20465;-72
2023/11/08 13:38:10;;;;;;;3.53;3.20;;;11.80;99.90;;;;;;5023654;28;20838;-72
2023/11/08 13:40:37;;;;;;;8.80;5.43;;;11.80;99.90;;;;;;5024342;28;20476;-73
2023/11/08 13:43:04;;;;;;;1.73;1.63;;;11.70;99.90;;;;;;5026179;28;20472;-72
2023/11/08 13:45:31;;;;;;;1.73;1.67;;;11.70;99.90;;;;;;5027860;28;20505;-73
2023/11/08 13:47:59;;;;;;;3.10;2.70;;;11.60;99.90;;;;;;5029308;28;20441;-73
2023/11/08 13:50:26;;;;;;;4.30;3.90;;;11.60;99.90;;;;;;5029206;28;20484;-73
2023/11/08 13:52:54;;;;;;;5.27;4.00;;;11.60;99.90;;;;;;5027521;28;20465;-73
2023/11/08 13:55:21;;;;;;;2.30;2.20;;;11.60;99.90;;;;;;5025360;28;20478;-73
2023/11/08 13:57:48;;;;;;;12.53;7.07;;;11.60;99.90;;;;;;5028090;28;20464;-73
2023/11/08 14:00:15;;;;;;;3.27;2.13;;;11.60;99.90;;;;;;5024868;28;20574;-73
2023/11/08 14:02:43;;;;;;;2.70;2.50;;;11.60;99.90;;;;;;5028247;28;20465;-73
2023/11/08 14:05:11;;;;;;;9.50;4.57;;;11.60;99.90;;;;;;5028006;28;20466;-73
2023/11/08 14:07:38;;;;;;;5.45;3.80;;;11.50;99.90;;;;;;5027317;28;20456;-74
2023/11/08 14:10:07;;;;;;;4.20;3.30;;;11.50;99.90;;;;;;5028619;28;20627;-73
2023/11/08 14:12:34;;;;;;;9.60;4.53;;;11.50;99.90;;;;;;5027089;28;20481;-73
2023/11/08 14:15:00;;;;;;;2.75;2.55;;;11.50;99.90;;;;;;5026219;28;20808;-73
2023/11/08 14:17:27;;;;;;;3.83;3.30;;;11.40;99.90;;;;;;5026048;28;20206;-74
2023/11/08 14:19:54;;;;;;;3.87;3.57;;;11.40;99.90;;;;;;5026542;28;20544;-73
2023/11/08 14:22:22;;;;;;;5.20;4.70;;;11.40;99.90;;;;;;5028961;28;20816;-74
2023/11/08 14:24:49;;;;;;;5.17;4.67;;;11.30;99.90;;;;;;5026581;28;20535;-73
2023/11/08 14:27:18;;;;;;;3.87;3.67;;;11.30;99.90;;;;;;5027310;28;20468;-74
2023/11/08 14:29:44;;;;;;;3.55;3.25;;;11.20;99.90;;;;;;5026312;28;20588;-73
2023/11/08 14:32:11;;;;;;;3.23;3.03;;;11.20;99.90;;;;;;5021699;28;20237;-72
2023/11/08 14:34:38;;;;;;;4.20;4.00;;;11.10;99.90;;;;;;5027375;28;20473;-73
2023/11/08 14:37:07;;;;;;;6.50;3.83;;;11.10;99.90;;;;;;5018984;28;20294;-72
2023/11/08 14:39:34;;;;;;;6.00;4.97;;;11.10;99.90;;;;;;5020332;28;20249;-73
2023/11/08 14:42:02;;;;;;;8.50;6.57;;;11.10;99.90;;;;;;5021323;28;20221;-73
2023/11/08 14:44:30;;;;;;;9.05;5.72;;;11.00;99.90;;;;;;5026473;28;20236;-74
2023/11/08 14:46:57;;;;;;;4.23;3.97;;;11.00;99.90;;;;;;5026186;28;20298;-72
2023/11/08 14:49:25;;;;;;;12.73;7.40;;;10.90;99.90;;;;;;5029542;28;20464;-74
2023/11/08 14:51:53;;;;;;;9.35;8.20;;;10.90;99.90;;;;;;5032083;28;20226;-74
2023/11/08 14:54:20;;;;;;;6.38;5.18;;;10.90;99.90;;;;;;5032689;28;20214;-72
2023/11/08 14:56:48;;;;;;;6.20;5.67;;;10.80;99.90;;;;;;5031515;28;20210;-73
2023/11/08 14:59:15;;;;;;;4.55;4.15;;;10.80;99.90;;;;;;5026835;28;20481;-72
2023/11/08 15:01:43;;;;;;;13.10;7.75;;;10.80;99.90;;;;;;5028450;28;20740;-73
2023/11/08 15:04:10;;;;;;;7.60;5.45;;;10.70;99.90;;;;;;5029394;28;20209;-74
2023/11/08 15:06:38;;;;;;;4.88;4.35;;;10.70;99.90;;;;;;5030293;28;20225;-73
2023/11/08 15:09:07;;;;;;;5.75;5.28;;;10.60;99.90;;;;;;5031709;28;20305;-73
2023/11/08 15:11:34;;;;;;;5.35;4.93;;;10.60;99.90;;;;;;5030629;28;20234;-73
2023/11/08 15:14:02;;;;;;;4.60;4.15;;;10.50;99.90;;;;;;5029337;28;20206;-73
2023/11/08 15:16:29;;;;;;;3.75;3.55;;;10.50;99.90;;;;;;5030651;28;20252;-73
2023/11/08 15:18:57;;;;;;;11.15;6.70;;;10.40;99.90;;;;;;5031798;28;20604;-73
2023/11/08 15:21:23;;;;;;;4.38;4.07;;;10.40;99.90;;;;;;5026591;28;20222;-73
2023/11/08 15:23:50;;;;;;;4.53;3.88;;;10.30;99.90;;;;;;5031894;28;20679;-73
2023/11/08 15:26:17;;;;;;;3.95;3.65;;;10.30;99.90;;;;;;5029749;28;20633;-73
2023/11/08 15:28:44;;;;;;;4.78;4.43;;;10.20;99.90;;;;;;5030510;28;20291;-73
2023/11/08 15:31:11;;;;;;;3.70;3.50;;;10.20;99.90;;;;;;5023520;28;20234;-73
2023/11/08 15:33:37;;;;;;;3.83;3.63;;;10.20;99.90;;;;;;5031708;28;20220;-73
2023/11/08 15:36:06;;;;;;;5.35;4.95;;;10.10;99.90;;;;;;5031505;28;20580;-72
2023/11/08 15:38:33;;;;;;;3.35;3.25;;;10.10;99.90;;;;;;5031011;28;20198;-73
2023/11/08 15:41:00;;;;;;;3.28;3.08;;;10.10;99.90;;;;;;5030717;28;20292;-73
2023/11/08 15:43:27;;;;;;;3.17;3.08;;;10.10;99.90;;;;;;5029755;28;20199;-73
2023/11/08 15:45:53;;;;;;;3.90;3.15;;;10.00;99.90;;;;;;5030623;28;20214;-73
2023/11/08 15:48:21;;;;;;;3.15;2.85;;;10.10;99.90;;;;;;5031427;28;20257;-73
2023/11/08 15:50:47;;;;;;;4.03;3.75;;;10.00;99.90;;;;;;5029451;28;20222;-72
2023/11/08 15:53:15;;;;;;;3.53;3.33;;;10.00;99.90;;;;;;5030208;28;20867;-73
2023/11/08 15:55:42;;;;;;;3.97;3.15;;;10.00;99.90;;;;;;5029925;28;20228;-73
2023/11/08 15:58:10;;;;;;;3.60;3.40;;;9.90;99.90;;;;;;5028472;28;20209;-73
2023/11/08 16:00:36;;;;;;;3.88;3.67;;;9.90;99.90;;;;;;5026413;28;20233;-72
2023/11/08 16:03:03;;;;;;;3.08;3.03;;;9.90;99.90;;;;;;5030915;28;20205;-73
2023/11/08 16:05:32;;;;;;;3.88;3.78;;;9.90;99.90;;;;;;5030824;28;20212;-74
2023/11/08 16:08:00;;;;;;;5.85;5.40;;;9.90;99.90;;;;;;5028346;28;20205;-71
2023/11/08 16:10:28;;;;;;;13.82;8.15;;;9.80;99.90;;;;;;5029245;28;20569;-75
2023/11/08 16:12:56;;;;;;;7.68;5.75;;;9.80;99.90;;;;;;5028788;28;20234;-72
2023/11/08 16:15:23;;;;;;;4.80;4.50;;;9.80;99.90;;;;;;5028180;28;20665;-74
2023/11/08 16:17:50;;;;;;;4.93;4.30;;;9.80;99.90;;;;;;5028750;28;20213;-74
2023/11/08 16:20:17;;;;;;;4.32;4.13;;;9.80;99.90;;;;;;5028908;28;20612;-74
2023/11/08 16:22:43;;;;;;;18.38;13.18;;;9.80;99.90;;;;;;5023162;28;20587;-73
2023/11/08 16:25:11;;;;;;;10.48;7.15;;;9.80;99.90;;;;;;5029834;28;20210;-74
2023/11/08 16:27:39;;;;;;;11.75;10.27;;;9.80;99.90;;;;;;5028899;28;20210;-73
2023/11/08 16:30:07;;;;;;;7.22;6.53;;;9.80;99.90;;;;;;5028893;28;20574;-74
2023/11/08 16:32:34;;;;;;;4.85;4.55;;;9.80;99.90;;;;;;5028945;28;20238;-74
2023/11/08 16:35:01;;;;;;;6.38;4.95;;;9.90;99.90;;;;;;5029727;28;20209;-74
2023/11/08 16:37:27;;;;;;;9.85;4.78;;;9.90;99.90;;;;;;5029500;28;20825;-74
2023/11/08 16:39:54;;;;;;;4.72;4.20;;;9.90;99.90;;;;;;5029258;28;20203;-74
2023/11/08 16:42:22;;;;;;;8.35;5.90;;;10.00;99.90;;;;;;5027485;28;20241;-76
2023/11/08 16:44:50;;;;;;;7.78;6.15;;;10.00;99.90;;;;;;5029663;28;20610;-74
2023/11/08 16:47:17;;;;;;;4.45;4.15;;;10.00;99.90;;;;;;5022159;28;20287;-74
2023/11/08 16:49:46;;;;;;;7.05;5.75;;;10.00;99.90;;;;;;5030058;28;20247;-74
2023/11/08 16:52:12;;;;;;;6.05;4.80;;;10.00;99.90;;;;;;5027803;28;20234;-74
2023/11/08 16:54:39;;;;;;;6.68;5.50;;;10.00;99.90;;;;;;5026809;28;20217;-74
2023/11/08 16:57:06;;;;;;;6.95;3.80;;;10.00;99.90;;;;;;5028884;28;20595;-74
2023/11/08 16:59:33;;;;;;;7.60;6.68;;;10.00;99.90;;;;;;5030025;28;20211;-74
2023/11/08 17:02:01;;;;;;;24.98;12.25;;;10.00;99.90;;;;;;5028007;28;20230;-75
2023/11/08 17:04:28;;;;;;;7.47;6.85;;;10.00;99.90;;;;;;5030321;28;20532;-75
2023/11/08 17:06:54;;;;;;;12.05;9.40;;;10.00;99.90;;;;;;5019889;28;20237;-75
2023/11/08 17:09:21;;;;;;;15.50;9.52;;;10.00;99.90;;;;;;5025702;28;20209;-75
2023/11/08 17:11:48;;;;;;;7.47;6.55;;;10.00;99.90;;;;;;5023418;28;20237;-75
2023/11/08 17:14:15;;;;;;;12.25;9.48;;;10.00;99.90;;;;;;5029082;28;20584;-74
2023/11/08 17:16:41;;;;;;;7.47;6.70;;;10.00;99.90;;;;;;5024160;28;20210;-74
2023/11/08 17:19:10;;;;;;;10.80;7.90;;;10.00;99.90;;;;;;5024786;28;20225;-75
2023/11/08 17:21:36;;;;;;;14.00;9.30;;;9.90;99.90;;;;;;5023349;28;20237;-75
2023/11/08 17:24:03;;;;;;;14.10;8.85;;;10.00;99.90;;;;;;5028225;28;20210;-75
2023/11/08 17:26:30;;;;;;;8.63;7.35;;;10.00;99.90;;;;;;5019047;28;20583;-75
2023/11/08 17:28:57;;;;;;;11.13;7.53;;;10.00;99.90;;;;;;5027676;28;20677;-75
2023/11/08 17:31:24;;;;;;;16.20;8.75;;;10.00;99.90;;;;;;5028693;28;20227;-75
2023/11/08 17:33:50;;;;;;;11.93;7.13;;;10.00;99.90;;;;;;5028858;28;20574;-75
2023/11/08 17:36:18;;;;;;;6.18;5.55;;;10.00;99.90;;;;;;5027391;28;20300;-75
2023/11/08 17:38:49;;;;;;;5.68;4.65;;;10.00;99.90;;;;;;5014945;28;20215;-75
2023/11/08 17:41:16;;;;;;;6.93;6.40;;;9.90;99.90;;;;;;5022523;28;20622;-75
2023/11/08 17:43:43;;;;;;;8.25;6.95;;;9.90;99.90;;;;;;5024339;28;20214;-75
2023/11/08 17:46:10;;;;;;;8.95;4.70;;;9.90;99.90;;;;;;5028891;28;20220;-75
2023/11/08 17:48:37;;;;;;;4.50;4.20;;;9.90;99.90;;;;;;5028309;28;20271;-75
2023/11/08 17:51:05;;;;;;;4.55;4.15;;;9.90;99.90;;;;;;5020043;28;20856;-75
2023/11/08 17:53:33;;;;;;;7.82;5.25;;;9.80;99.90;;;;;;5017218;28;20237;-74